sensor_id;sensor_type;location;lat;lon;timestamp;temperature;humidity
21331;DHT22;10824;51.632;4.950;2022-10-31T00:01:30;13.40;99.90
21331;DHT22;10824;51.632;4.950;2022-10-31T00:03:58;13.40;99.90
21331;DHT22;10824;51.632;4.950;2022-10-31T00:06:26;13.40;99.90
21331;DHT22;10824;51.632;4.950;2022-10-31T00:09:04;13.40;99.90
21331;DHT22;10824;51.632;4.950;2022-10-31T00:11:33;13.40;99.90
21331;DHT22;10824;51.632;4.950;2022-10-31T00:14:00;13.40;99.90
21331;DHT22;10824;51.632;4.950;2022-10-31T00:16:28;13.40;99.90
21331;DHT22;10824;51.632;4.950;2022-10-31T00:18:58;13.40;99.90
21331;DHT22;10824;51.632;4.950;2022-10-31T00:21:32;13.40;99.90
21331;DHT22;10824;51.632;4.950;2022-10-31T00:24:01;13.40;99.90
21331;DHT22;10824;51.632;4.950;2022-10-31T00:26:29;13.40;99.90
21331;DHT22;10824;51.632;4.950;2022-10-31T00:28:58;13.40;99.90
21331;DHT22;10824;51.632;4.950;2022-10-31T00:31:26;13.40;99.90
21331;DHT22;10824;51.632;4.950;2022-10-31T00:33:54;13.30;99.90
21331;DHT22;10824;51.632;4.950;2022-10-31T00:36:21;13.20;99.90
21331;DHT22;10824;51.632;4.950;2022-10-31T00:38:48;13.20;99.90
21331;DHT22;10824;51.632;4.950;2022-10-31T00:41:17;13.20;99.90
21331;DHT22;10824;51.632;4.950;2022-10-31T00:43:44;13.20;99.90
21331;DHT22;10824;51.632;4.950;2022-10-31T00:46:12;13.20;99.90
21331;DHT22;10824;51.632;4.950;2022-10-31T00:48:40;13.20;99.90
21331;DHT22;10824;51.632;4.950;2022-10-31T00:51:08;13.20;99.90
21331;DHT22;10824;51.632;4.950;2022-10-31T00:53:35;13.20;99.90
21331;DHT22;10824;51.632;4.950;2022-10-31T00:56:02;13.20;99.90
21331;DHT22;10824;51.632;4.950;2022-10-31T00:58:30;13.10;99.90
21331;DHT22;10824;51.632;4.950;2022-10-31T01:00:57;13.10;99.90
21331;DHT22;10824;51.632;4.950;2022-10-31T01:03:30;13.10;99.90
21331;DHT22;10824;51.632;4.950;2022-10-31T01:06:06;13.10;99.90
21331;DHT22;10824;51.632;4.950;2022-10-31T01:08:34;13.00;99.90
21331;DHT22;10824;51.632;4.950;2022-10-31T01:11:16;12.90;99.90
21331;DHT22;10824;51.632;4.950;2022-10-31T01:13:44;12.90;99.90
21331;DHT22;10824;51.632;4.950;2022-10-31T01:16:15;12.90;99.90
21331;DHT22;10824;51.632;4.950;2022-10-31T01:18:42;12.80;99.90
21331;DHT22;10824;51.632;4.950;2022-10-31T01:21:12;12.80;99.90
21331;DHT22;10824;51.632;4.950;2022-10-31T01:23:39;12.80;99.90
21331;DHT22;10824;51.632;4.950;2022-10-31T01:26:27;12.70;99.90
21331;DHT22;10824;51.632;4.950;2022-10-31T01:29:05;12.60;99.90
21331;DHT22;10824;51.632;4.950;2022-10-31T01:31:37;12.60;99.90
21331;DHT22;10824;51.632;4.950;2022-10-31T01:34:04;12.60;99.90
21331;DHT22;10824;51.632;4.950;2022-10-31T01:36:36;12.50;99.90
21331;DHT22;10824;51.632;4.950;2022-10-31T01:39:07;12.50;99.90
21331;DHT22;10824;51.632;4.950;2022-10-31T01:41:37;12.50;99.90
21331;DHT22;10824;51.632;4.950;2022-10-31T01:46:44;12.50;99.90
21331;DHT22;10824;51.632;4.950;2022-10-31T01:49:18;12.40;99.90
21331;DHT22;10824;51.632;4.950;2022-10-31T01:51:53;12.40;99.90
21331;DHT22;10824;51.632;4.950;2022-10-31T01:54:26;12.40;99.90
21331;DHT22;10824;51.632;4.950;2022-10-31T01:56:56;12.40;99.90
21331;DHT22;10824;51.632;4.950;2022-10-31T01:59:28;12.30;99.90
21331;DHT22;10824;51.632;4.950;2022-10-31T02:01:56;12.20;99.90
21331;DHT22;10824;51.632;4.950;2022-10-31T02:04:26;12.20;99.90
21331;DHT22;10824;51.632;4.950;2022-10-31T02:07:07;12.30;99.90
21331;DHT22;10824;51.632;4.950;2022-10-31T02:09:36;12.30;99.90
21331;DHT22;10824;51.632;4.950;2022-10-31T02:12:04;12.20;99.90
21331;DHT22;10824;51.632;4.950;2022-10-31T02:14:33;12.20;99.90
21331;DHT22;10824;51.632;4.950;2022-10-31T02:17:04;12.20;99.90
21331;DHT22;10824;51.632;4.950;2022-10-31T02:19:35;12.30;99.90
21331;DHT22;10824;51.632;4.950;2022-10-31T02:27:54;12.20;99.90
21331;DHT22;10824;51.632;4.950;2022-10-31T02:30:25;12.20;99.90
21331;DHT22;10824;51.632;4.950;2022-10-31T02:38:52;12.10;99.90
21331;DHT22;10824;51.632;4.950;2022-10-31T02:42:03;12.10;99.90
21331;DHT22;10824;51.632;4.950;2022-10-31T02:47:14;12.00;99.90
21331;DHT22;10824;51.632;4.950;2022-10-31T02:49:56;11.90;99.90
21331;DHT22;10824;51.632;4.950;2022-10-31T02:52:27;11.80;99.90
21331;DHT22;10824;51.632;4.950;2022-10-31T02:57:54;11.80;99.90
21331;DHT22;10824;51.632;4.950;2022-10-31T03:00:25;11.80;99.90
21331;DHT22;10824;51.632;4.950;2022-10-31T03:06:02;11.70;99.90
21331;DHT22;10824;51.632;4.950;2022-10-31T03:08:41;11.60;99.90
21331;DHT22;10824;51.632;4.950;2022-10-31T03:11:09;11.40;99.90
21331;DHT22;10824;51.632;4.950;2022-10-31T03:16:38;11.40;99.90
21331;DHT22;10824;51.632;4.950;2022-10-31T03:19:09;11.40;99.90
21331;DHT22;10824;51.632;4.950;2022-10-31T03:24:12;11.40;99.90
21331;DHT22;10824;51.632;4.950;2022-10-31T03:26:49;11.40;99.90
21331;DHT22;10824;51.632;4.950;2022-10-31T03:29:20;11.50;99.90
21331;DHT22;10824;51.632;4.950;2022-10-31T03:31:57;11.40;99.90
21331;DHT22;10824;51.632;4.950;2022-10-31T03:34:27;11.40;99.90
21331;DHT22;10824;51.632;4.950;2022-10-31T03:36:58;11.40;99.90
21331;DHT22;10824;51.632;4.950;2022-10-31T03:39:28;11.40;99.90
21331;DHT22;10824;51.632;4.950;2022-10-31T03:42:23;11.40;99.90
21331;DHT22;10824;51.632;4.950;2022-10-31T03:47:30;11.20;99.90
21331;DHT22;10824;51.632;4.950;2022-10-31T03:49:59;11.20;99.90
21331;DHT22;10824;51.632;4.950;2022-10-31T03:52:34;11.20;99.90
21331;DHT22;10824;51.632;4.950;2022-10-31T03:55:05;11.30;99.90
21331;DHT22;10824;51.632;4.950;2022-10-31T03:58:02;11.30;99.90
21331;DHT22;10824;51.632;4.950;2022-10-31T04:00:32;11.30;99.90
21331;DHT22;10824;51.632;4.950;2022-10-31T04:03:07;11.30;99.90
21331;DHT22;10824;51.632;4.950;2022-10-31T04:05:38;11.20;99.90
21331;DHT22;10824;51.632;4.950;2022-10-31T04:08:09;11.20;99.90
21331;DHT22;10824;51.632;4.950;2022-10-31T04:10:41;11.10;99.90
21331;DHT22;10824;51.632;4.950;2022-10-31T04:13:14;11.10;99.90
21331;DHT22;10824;51.632;4.950;2022-10-31T04:15:45;11.10;99.90
21331;DHT22;10824;51.632;4.950;2022-10-31T04:18:14;11.10;99.90
21331;DHT22;10824;51.632;4.950;2022-10-31T04:20:41;11.00;99.90
21331;DHT22;10824;51.632;4.950;2022-10-31T04:23:21;11.00;99.90
21331;DHT22;10824;51.632;4.950;2022-10-31T04:25:50;10.90;99.90
21331;DHT22;10824;51.632;4.950;2022-10-31T04:28:18;10.90;99.90
21331;DHT22;10824;51.632;4.950;2022-10-31T04:30:50;10.90;99.90
21331;DHT22;10824;51.632;4.950;2022-10-31T04:33:18;10.90;99.90
21331;DHT22;10824;51.632;4.950;2022-10-31T04:35:46;10.80;99.90
21331;DHT22;10824;51.632;4.950;2022-10-31T04:38:13;10.90;99.90
21331;DHT22;10824;51.632;4.950;2022-10-31T04:40:42;10.90;99.90
21331;DHT22;10824;51.632;4.950;2022-10-31T04:43:27;10.90;99.90
21331;DHT22;10824;51.632;4.950;2022-10-31T04:45:55;10.90;99.90
21331;DHT22;10824;51.632;4.950;2022-10-31T04:48:22;10.80;99.90
21331;DHT22;10824;51.632;4.950;2022-10-31T04:50:49;10.80;99.90
21331;DHT22;10824;51.632;4.950;2022-10-31T04:53:16;10.80;99.90
21331;DHT22;10824;51.632;4.950;2022-10-31T04:56:03;10.70;99.90
21331;DHT22;10824;51.632;4.950;2022-10-31T04:58:44;10.70;99.90
21331;DHT22;10824;51.632;4.950;2022-10-31T05:01:12;10.70;99.90
21331;DHT22;10824;51.632;4.950;2022-10-31T05:03:39;10.80;99.90
21331;DHT22;10824;51.632;4.950;2022-10-31T05:06:07;10.80;99.90
21331;DHT22;10824;51.632;4.950;2022-10-31T05:08:36;10.80;99.90
21331;DHT22;10824;51.632;4.950;2022-10-31T05:11:06;10.80;99.90
21331;DHT22;10824;51.632;4.950;2022-10-31T05:13:33;10.80;99.90
21331;DHT22;10824;51.632;4.950;2022-10-31T05:16:00;10.70;99.90
21331;DHT22;10824;51.632;4.950;2022-10-31T05:18:46;10.80;99.90
21331;DHT22;10824;51.632;4.950;2022-10-31T05:21:46;10.70;99.90
21331;DHT22;10824;51.632;4.950;2022-10-31T05:24:14;10.80;99.90
21331;DHT22;10824;51.632;4.950;2022-10-31T05:26:46;10.80;99.90
21331;DHT22;10824;51.632;4.950;2022-10-31T05:29:13;10.90;99.90
21331;DHT22;10824;51.632;4.950;2022-10-31T05:31:40;10.80;99.90
21331;DHT22;10824;51.632;4.950;2022-10-31T05:34:18;10.70;99.90
21331;DHT22;10824;51.632;4.950;2022-10-31T05:37:05;10.70;99.90
21331;DHT22;10824;51.632;4.950;2022-10-31T05:39:34;10.70;99.90
21331;DHT22;10824;51.632;4.950;2022-10-31T05:42:07;10.60;99.90
21331;DHT22;10824;51.632;4.950;2022-10-31T05:44:34;10.70;99.90
21331;DHT22;10824;51.632;4.950;2022-10-31T05:47:37;10.70;99.90
21331;DHT22;10824;51.632;4.950;2022-10-31T05:50:26;10.60;99.90
21331;DHT22;10824;51.632;4.950;2022-10-31T05:53:14;10.60;99.90
21331;DHT22;10824;51.632;4.950;2022-10-31T05:55:42;10.60;99.90
21331;DHT22;10824;51.632;4.950;2022-10-31T05:58:13;10.60;99.90
21331;DHT22;10824;51.632;4.950;2022-10-31T06:00:48;10.60;99.90
21331;DHT22;10824;51.632;4.950;2022-10-31T06:03:17;10.50;99.90
21331;DHT22;10824;51.632;4.950;2022-10-31T06:05:53;10.60;99.90
21331;DHT22;10824;51.632;4.950;2022-10-31T06:08:24;10.60;99.90
21331;DHT22;10824;51.632;4.950;2022-10-31T06:10:53;10.60;99.90
21331;DHT22;10824;51.632;4.950;2022-10-31T06:13:40;10.60;99.90
21331;DHT22;10824;51.632;4.950;2022-10-31T06:16:17;10.60;99.90
21331;DHT22;10824;51.632;4.950;2022-10-31T06:18:46;10.60;99.90
21331;DHT22;10824;51.632;4.950;2022-10-31T06:21:14;10.60;99.90
21331;DHT22;10824;51.632;4.950;2022-10-31T06:23:47;10.60;99.90
21331;DHT22;10824;51.632;4.950;2022-10-31T06:26:34;10.60;99.90
21331;DHT22;10824;51.632;4.950;2022-10-31T06:29:02;10.80;99.90
21331;DHT22;10824;51.632;4.950;2022-10-31T06:31:54;10.80;99.90
21331;DHT22;10824;51.632;4.950;2022-10-31T06:34:21;10.80;99.90
21331;DHT22;10824;51.632;4.950;2022-10-31T06:36:48;10.90;99.90
21331;DHT22;10824;51.632;4.950;2022-10-31T06:39:19;10.90;99.90
21331;DHT22;10824;51.632;4.950;2022-10-31T06:41:49;10.90;99.90
21331;DHT22;10824;51.632;4.950;2022-10-31T06:44:19;10.90;99.90
21331;DHT22;10824;51.632;4.950;2022-10-31T06:46:55;10.90;99.90
21331;DHT22;10824;51.632;4.950;2022-10-31T06:49:31;10.90;99.90
21331;DHT22;10824;51.632;4.950;2022-10-31T06:52:01;10.90;99.90
21331;DHT22;10824;51.632;4.950;2022-10-31T06:54:29;10.90;99.90
21331;DHT22;10824;51.632;4.950;2022-10-31T06:56:56;10.90;99.90
21331;DHT22;10824;51.632;4.950;2022-10-31T06:59:23;10.90;99.90
21331;DHT22;10824;51.632;4.950;2022-10-31T07:02:29;11.00;99.90
21331;DHT22;10824;51.632;4.950;2022-10-31T07:04:56;11.00;99.90
21331;DHT22;10824;51.632;4.950;2022-10-31T07:07:24;11.00;99.90
21331;DHT22;10824;51.632;4.950;2022-10-31T07:09:51;11.10;99.90
21331;DHT22;10824;51.632;4.950;2022-10-31T07:12:27;11.10;99.90
21331;DHT22;10824;51.632;4.950;2022-10-31T07:14:57;11.10;99.90
21331;DHT22;10824;51.632;4.950;2022-10-31T07:17:25;11.10;99.90
21331;DHT22;10824;51.632;4.950;2022-10-31T07:19:58;11.10;99.90
21331;DHT22;10824;51.632;4.950;2022-10-31T07:22:35;11.10;99.90
21331;DHT22;10824;51.632;4.950;2022-10-31T07:25:05;11.10;99.90
21331;DHT22;10824;51.632;4.950;2022-10-31T07:28:05;11.20;99.90
21331;DHT22;10824;51.632;4.950;2022-10-31T07:30:32;11.20;99.90
21331;DHT22;10824;51.632;4.950;2022-10-31T07:33:01;11.30;99.90
21331;DHT22;10824;51.632;4.950;2022-10-31T07:35:49;11.40;99.90
21331;DHT22;10824;51.632;4.950;2022-10-31T07:38:20;11.40;99.90
21331;DHT22;10824;51.632;4.950;2022-10-31T07:40:52;11.50;99.90
21331;DHT22;10824;51.632;4.950;2022-10-31T07:43:23;11.60;99.90
21331;DHT22;10824;51.632;4.950;2022-10-31T07:46:12;11.60;99.90
21331;DHT22;10824;51.632;4.950;2022-10-31T07:48:58;11.70;99.90
21331;DHT22;10824;51.632;4.950;2022-10-31T07:51:55;11.80;99.90
21331;DHT22;10824;51.632;4.950;2022-10-31T07:54:45;11.90;99.90
21331;DHT22;10824;51.632;4.950;2022-10-31T07:57:20;11.90;99.90
21331;DHT22;10824;51.632;4.950;2022-10-31T07:59:51;12.00;99.90
21331;DHT22;10824;51.632;4.950;2022-10-31T08:02:18;12.10;99.90
21331;DHT22;10824;51.632;4.950;2022-10-31T08:04:48;12.20;99.90
21331;DHT22;10824;51.632;4.950;2022-10-31T08:07:36;12.30;99.90
21331;DHT22;10824;51.632;4.950;2022-10-31T08:10:07;12.30;99.90
21331;DHT22;10824;51.632;4.950;2022-10-31T08:12:34;12.40;99.90
21331;DHT22;10824;51.632;4.950;2022-10-31T08:15:05;12.50;99.90
21331;DHT22;10824;51.632;4.950;2022-10-31T08:17:38;12.60;99.90
21331;DHT22;10824;51.632;4.950;2022-10-31T08:20:07;12.60;99.90
21331;DHT22;10824;51.632;4.950;2022-10-31T08:22:41;12.60;99.90
21331;DHT22;10824;51.632;4.950;2022-10-31T08:25:10;12.70;99.90
21331;DHT22;10824;51.632;4.950;2022-10-31T08:27:38;12.70;99.90
21331;DHT22;10824;51.632;4.950;2022-10-31T08:30:05;12.70;99.90
21331;DHT22;10824;51.632;4.950;2022-10-31T08:32:35;12.80;99.90
21331;DHT22;10824;51.632;4.950;2022-10-31T08:35:21;12.90;99.90
21331;DHT22;10824;51.632;4.950;2022-10-31T08:38:12;12.90;99.90
21331;DHT22;10824;51.632;4.950;2022-10-31T08:40:40;13.00;99.90
21331;DHT22;10824;51.632;4.950;2022-10-31T08:43:15;13.10;99.90
21331;DHT22;10824;51.632;4.950;2022-10-31T08:45:43;13.10;99.90
21331;DHT22;10824;51.632;4.950;2022-10-31T08:48:17;13.10;99.90
21331;DHT22;10824;51.632;4.950;2022-10-31T08:50:46;13.20;99.90
21331;DHT22;10824;51.632;4.950;2022-10-31T08:53:15;13.20;99.90
21331;DHT22;10824;51.632;4.950;2022-10-31T08:55:48;13.20;99.90
21331;DHT22;10824;51.632;4.950;2022-10-31T08:58:23;13.20;99.90
21331;DHT22;10824;51.632;4.950;2022-10-31T09:00:59;13.20;99.90
21331;DHT22;10824;51.632;4.950;2022-10-31T09:03:29;13.30;99.90
21331;DHT22;10824;51.632;4.950;2022-10-31T09:06:00;13.30;99.90
21331;DHT22;10824;51.632;4.950;2022-10-31T09:08:32;13.30;99.90
21331;DHT22;10824;51.632;4.950;2022-10-31T09:11:01;13.50;99.90
21331;DHT22;10824;51.632;4.950;2022-10-31T09:13:47;13.50;99.90
21331;DHT22;10824;51.632;4.950;2022-10-31T09:16:43;13.60;99.90
21331;DHT22;10824;51.632;4.950;2022-10-31T09:19:20;13.60;99.90
21331;DHT22;10824;51.632;4.950;2022-10-31T09:21:47;13.70;99.90
21331;DHT22;10824;51.632;4.950;2022-10-31T09:24:15;13.80;99.90
21331;DHT22;10824;51.632;4.950;2022-10-31T09:26:42;13.90;99.90
21331;DHT22;10824;51.632;4.950;2022-10-31T09:29:25;14.00;99.90
21331;DHT22;10824;51.632;4.950;2022-10-31T09:31:58;14.10;99.90
21331;DHT22;10824;51.632;4.950;2022-10-31T09:34:27;14.10;99.90
21331;DHT22;10824;51.632;4.950;2022-10-31T09:37:21;14.20;99.90
21331;DHT22;10824;51.632;4.950;2022-10-31T09:39:50;14.30;99.90
21331;DHT22;10824;51.632;4.950;2022-10-31T09:42:30;14.40;99.90
21331;DHT22;10824;51.632;4.950;2022-10-31T09:45:18;14.50;99.90
21331;DHT22;10824;51.632;4.950;2022-10-31T09:47:58;14.50;99.90
21331;DHT22;10824;51.632;4.950;2022-10-31T09:51:09;14.50;99.90
21331;DHT22;10824;51.632;4.950;2022-10-31T09:54:10;14.60;99.90
21331;DHT22;10824;51.632;4.950;2022-10-31T09:56:38;14.60;99.90
21331;DHT22;10824;51.632;4.950;2022-10-31T10:02:31;14.70;99.90
21331;DHT22;10824;51.632;4.950;2022-10-31T10:05:02;14.70;99.90
21331;DHT22;10824;51.632;4.950;2022-10-31T10:32:42;15.00;99.90
21331;DHT22;10824;51.632;4.950;2022-10-31T10:35:22;15.00;99.90
21331;DHT22;10824;51.632;4.950;2022-10-31T10:37:56;15.00;99.90
21331;DHT22;10824;51.632;4.950;2022-10-31T10:40:28;15.00;99.90
21331;DHT22;10824;51.632;4.950;2022-10-31T10:51:59;14.90;99.90
21331;DHT22;10824;51.632;4.950;2022-10-31T10:57:48;15.00;99.90
21331;DHT22;10824;51.632;4.950;2022-10-31T11:00:57;14.90;99.90
21331;DHT22;10824;51.632;4.950;2022-10-31T11:03:18;14.90;99.90
21331;DHT22;10824;51.632;4.950;2022-10-31T11:05:53;14.90;99.90
21331;DHT22;10824;51.632;4.950;2022-10-31T11:11:24;14.90;99.90
21331;DHT22;10824;51.632;4.950;2022-10-31T11:14:12;14.90;99.90
21331;DHT22;10824;51.632;4.950;2022-10-31T11:16:43;14.90;99.90
21331;DHT22;10824;51.632;4.950;2022-10-31T11:21:39;15.00;99.90
21331;DHT22;10824;51.632;4.950;2022-10-31T11:26:37;15.00;99.90
21331;DHT22;10824;51.632;4.950;2022-10-31T11:29:22;15.00;99.90
21331;DHT22;10824;51.632;4.950;2022-10-31T11:31:54;15.10;99.90
21331;DHT22;10824;51.632;4.950;2022-10-31T11:36:54;15.20;99.90
21331;DHT22;10824;51.632;4.950;2022-10-31T11:39:24;15.30;99.90
21331;DHT22;10824;51.632;4.950;2022-10-31T11:41:53;15.30;99.90
21331;DHT22;10824;51.632;4.950;2022-10-31T11:44:26;15.40;99.90
21331;DHT22;10824;51.632;4.950;2022-10-31T11:46:58;15.50;99.90
21331;DHT22;10824;51.632;4.950;2022-10-31T11:49:31;15.50;99.90
21331;DHT22;10824;51.632;4.950;2022-10-31T11:52:08;15.60;99.90
21331;DHT22;10824;51.632;4.950;2022-10-31T11:54:55;15.70;99.90
21331;DHT22;10824;51.632;4.950;2022-10-31T11:57:32;15.70;99.90
21331;DHT22;10824;51.632;4.950;2022-10-31T12:00:02;15.80;99.90
21331;DHT22;10824;51.632;4.950;2022-10-31T12:02:37;15.80;99.90
21331;DHT22;10824;51.632;4.950;2022-10-31T12:05:10;15.80;99.90
21331;DHT22;10824;51.632;4.950;2022-10-31T12:07:43;15.80;99.90
21331;DHT22;10824;51.632;4.950;2022-10-31T12:10:11;15.80;99.90
21331;DHT22;10824;51.632;4.950;2022-10-31T12:15:49;15.90;99.90
21331;DHT22;10824;51.632;4.950;2022-10-31T12:18:57;15.80;99.90
21331;DHT22;10824;51.632;4.950;2022-10-31T12:21:59;15.90;99.90
21331;DHT22;10824;51.632;4.950;2022-10-31T12:24:39;15.90;99.90
21331;DHT22;10824;51.632;4.950;2022-10-31T12:43:46;16.00;99.90
21331;DHT22;10824;51.632;4.950;2022-10-31T12:46:44;16.00;99.90
21331;DHT22;10824;51.632;4.950;2022-10-31T12:55:38;16.00;99.90
21331;DHT22;10824;51.632;4.950;2022-10-31T12:58:01;16.00;99.90
21331;DHT22;10824;51.632;4.950;2022-10-31T13:00:31;16.10;99.90
21331;DHT22;10824;51.632;4.950;2022-10-31T13:03:49;16.10;99.90
21331;DHT22;10824;51.632;4.950;2022-10-31T13:06:03;16.10;99.90
21331;DHT22;10824;51.632;4.950;2022-10-31T13:08:45;16.20;99.90
21331;DHT22;10824;51.632;4.950;2022-10-31T13:11:21;16.20;99.90
21331;DHT22;10824;51.632;4.950;2022-10-31T13:14:09;16.20;99.90
21331;DHT22;10824;51.632;4.950;2022-10-31T13:16:43;16.20;99.90
21331;DHT22;10824;51.632;4.950;2022-10-31T13:19:17;16.30;99.90
21331;DHT22;10824;51.632;4.950;2022-10-31T13:21:58;16.30;99.90
21331;DHT22;10824;51.632;4.950;2022-10-31T13:24:40;16.30;99.90
21331;DHT22;10824;51.632;4.950;2022-10-31T13:27:20;16.40;99.90
21331;DHT22;10824;51.632;4.950;2022-10-31T13:30:32;16.40;99.90
21331;DHT22;10824;51.632;4.950;2022-10-31T13:33:24;16.40;99.90
21331;DHT22;10824;51.632;4.950;2022-10-31T13:46:39;16.60;99.90
21331;DHT22;10824;51.632;4.950;2022-10-31T13:54:39;16.60;99.90
21331;DHT22;10824;51.632;4.950;2022-10-31T13:57:17;16.50;99.90
21331;DHT22;10824;51.632;4.950;2022-10-31T13:59:56;16.50;99.90
21331;DHT22;10824;51.632;4.950;2022-10-31T14:02:43;16.50;99.90
21331;DHT22;10824;51.632;4.950;2022-10-31T14:05:35;16.50;99.90
21331;DHT22;10824;51.632;4.950;2022-10-31T14:08:04;16.50;99.90
21331;DHT22;10824;51.632;4.950;2022-10-31T14:10:47;16.50;99.90
21331;DHT22;10824;51.632;4.950;2022-10-31T14:13:56;16.60;99.90
21331;DHT22;10824;51.632;4.950;2022-10-31T14:16:35;16.60;99.90
21331;DHT22;10824;51.632;4.950;2022-10-31T14:19:08;16.70;99.90
21331;DHT22;10824;51.632;4.950;2022-10-31T14:21:45;16.80;99.90
21331;DHT22;10824;51.632;4.950;2022-10-31T14:24:31;16.80;99.90
21331;DHT22;10824;51.632;4.950;2022-10-31T14:29:54;16.80;99.90
21331;DHT22;10824;51.632;4.950;2022-10-31T14:32:24;16.80;99.90
21331;DHT22;10824;51.632;4.950;2022-10-31T14:34:58;16.80;99.90
21331;DHT22;10824;51.632;4.950;2022-10-31T14:38:21;16.90;99.90
21331;DHT22;10824;51.632;4.950;2022-10-31T14:46:07;17.10;99.90
21331;DHT22;10824;51.632;4.950;2022-10-31T14:48:43;17.10;99.90
21331;DHT22;10824;51.632;4.950;2022-10-31T14:51:23;17.10;99.90
21331;DHT22;10824;51.632;4.950;2022-10-31T14:53:55;17.10;99.90
21331;DHT22;10824;51.632;4.950;2022-10-31T14:56:46;17.00;99.90
21331;DHT22;10824;51.632;4.950;2022-10-31T14:59:15;17.00;99.90
21331;DHT22;10824;51.632;4.950;2022-10-31T15:01:56;17.10;99.90
21331;DHT22;10824;51.632;4.950;2022-10-31T15:04:27;17.00;99.90
21331;DHT22;10824;51.632;4.950;2022-10-31T15:07:23;17.00;99.90
21331;DHT22;10824;51.632;4.950;2022-10-31T15:12:45;16.90;99.90
21331;DHT22;10824;51.632;4.950;2022-10-31T15:17:51;16.70;99.90
21331;DHT22;10824;51.632;4.950;2022-10-31T15:20:22;16.70;99.90
21331;DHT22;10824;51.632;4.950;2022-10-31T15:22:51;16.70;99.90
21331;DHT22;10824;51.632;4.950;2022-10-31T15:25:21;16.60;99.90
21331;DHT22;10824;51.632;4.950;2022-10-31T15:27:50;16.50;99.90
21331;DHT22;10824;51.632;4.950;2022-10-31T15:30:23;16.50;99.90
21331;DHT22;10824;51.632;4.950;2022-10-31T15:32:51;16.40;99.90
21331;DHT22;10824;51.632;4.950;2022-10-31T15:35:29;16.30;99.90
21331;DHT22;10824;51.632;4.950;2022-10-31T15:37:57;16.30;99.90
21331;DHT22;10824;51.632;4.950;2022-10-31T15:40:29;16.20;99.90
21331;DHT22;10824;51.632;4.950;2022-10-31T15:43:04;16.10;99.90
21331;DHT22;10824;51.632;4.950;2022-10-31T15:45:31;16.00;99.90
21331;DHT22;10824;51.632;4.950;2022-10-31T15:48:00;16.00;99.90
21331;DHT22;10824;51.632;4.950;2022-10-31T15:50:38;15.90;99.90
21331;DHT22;10824;51.632;4.950;2022-10-31T15:53:26;15.80;99.90
21331;DHT22;10824;51.632;4.950;2022-10-31T15:56:08;15.70;99.90
21331;DHT22;10824;51.632;4.950;2022-10-31T15:58:46;15.70;99.90
21331;DHT22;10824;51.632;4.950;2022-10-31T16:01:28;15.60;99.90
21331;DHT22;10824;51.632;4.950;2022-10-31T16:06:33;15.50;99.90
21331;DHT22;10824;51.632;4.950;2022-10-31T16:09:02;15.50;99.90
21331;DHT22;10824;51.632;4.950;2022-10-31T16:11:36;15.40;99.90
21331;DHT22;10824;51.632;4.950;2022-10-31T16:16:44;15.30;99.90
21331;DHT22;10824;51.632;4.950;2022-10-31T16:19:24;15.30;99.90
21331;DHT22;10824;51.632;4.950;2022-10-31T16:22:06;15.20;99.90
21331;DHT22;10824;51.632;4.950;2022-10-31T16:27:25;15.10;99.90
21331;DHT22;10824;51.632;4.950;2022-10-31T16:30:00;15.00;99.90
21331;DHT22;10824;51.632;4.950;2022-10-31T16:37:45;14.90;99.90
21331;DHT22;10824;51.632;4.950;2022-10-31T16:40:14;14.90;99.90
21331;DHT22;10824;51.632;4.950;2022-10-31T16:42:42;14.80;99.90
21331;DHT22;10824;51.632;4.950;2022-10-31T16:45:21;14.80;99.90
21331;DHT22;10824;51.632;4.950;2022-10-31T16:47:49;14.80;99.90
21331;DHT22;10824;51.632;4.950;2022-10-31T16:50:24;14.80;99.90
21331;DHT22;10824;51.632;4.950;2022-10-31T16:52:52;14.70;99.90
21331;DHT22;10824;51.632;4.950;2022-10-31T16:55:43;14.70;99.90
21331;DHT22;10824;51.632;4.950;2022-10-31T16:58:17;14.70;99.90
21331;DHT22;10824;51.632;4.950;2022-10-31T17:00:45;14.60;99.90
21331;DHT22;10824;51.632;4.950;2022-10-31T17:03:12;14.60;99.90
21331;DHT22;10824;51.632;4.950;2022-10-31T17:05:40;14.50;99.90
21331;DHT22;10824;51.632;4.950;2022-10-31T17:08:07;14.50;99.90
21331;DHT22;10824;51.632;4.950;2022-10-31T17:10:35;14.50;99.90
21331;DHT22;10824;51.632;4.950;2022-10-31T17:13:03;14.50;99.90
21331;DHT22;10824;51.632;4.950;2022-10-31T17:15:38;14.40;99.90
21331;DHT22;10824;51.632;4.950;2022-10-31T17:18:13;14.40;99.90
21331;DHT22;10824;51.632;4.950;2022-10-31T17:20:43;14.30;99.90
21331;DHT22;10824;51.632;4.950;2022-10-31T17:23:12;14.30;99.90
21331;DHT22;10824;51.632;4.950;2022-10-31T17:25:41;14.30;99.90
21331;DHT22;10824;51.632;4.950;2022-10-31T17:28:11;14.30;99.90
21331;DHT22;10824;51.632;4.950;2022-10-31T17:30:41;14.30;99.90
21331;DHT22;10824;51.632;4.950;2022-10-31T17:33:11;14.30;99.90
21331;DHT22;10824;51.632;4.950;2022-10-31T17:35:39;14.30;99.90
21331;DHT22;10824;51.632;4.950;2022-10-31T17:38:07;14.30;99.90
21331;DHT22;10824;51.632;4.950;2022-10-31T17:40:36;14.30;99.90
21331;DHT22;10824;51.632;4.950;2022-10-31T17:43:05;14.30;99.90
21331;DHT22;10824;51.632;4.950;2022-10-31T17:45:32;14.30;99.90
21331;DHT22;10824;51.632;4.950;2022-10-31T17:48:01;14.40;99.90
21331;DHT22;10824;51.632;4.950;2022-10-31T17:50:30;14.40;99.90
21331;DHT22;10824;51.632;4.950;2022-10-31T17:52:58;14.40;99.90
21331;DHT22;10824;51.632;4.950;2022-10-31T17:55:28;14.40;99.90
21331;DHT22;10824;51.632;4.950;2022-10-31T17:58:03;14.40;99.90
21331;DHT22;10824;51.632;4.950;2022-10-31T18:00:32;14.50;99.90
21331;DHT22;10824;51.632;4.950;2022-10-31T18:03:01;14.50;99.90
21331;DHT22;10824;51.632;4.950;2022-10-31T18:05:30;14.50;99.90
21331;DHT22;10824;51.632;4.950;2022-10-31T18:07:57;14.50;99.90
21331;DHT22;10824;51.632;4.950;2022-10-31T18:10:30;14.50;99.90
21331;DHT22;10824;51.632;4.950;2022-10-31T18:12:57;14.40;99.90
21331;DHT22;10824;51.632;4.950;2022-10-31T18:15:24;14.50;99.90
21331;DHT22;10824;51.632;4.950;2022-10-31T18:17:51;14.50;99.90
21331;DHT22;10824;51.632;4.950;2022-10-31T18:20:18;14.60;99.90
21331;DHT22;10824;51.632;4.950;2022-10-31T18:22:45;14.70;99.90
21331;DHT22;10824;51.632;4.950;2022-10-31T18:25:12;14.80;99.90
21331;DHT22;10824;51.632;4.950;2022-10-31T18:27:40;14.80;99.90
21331;DHT22;10824;51.632;4.950;2022-10-31T18:30:07;14.80;99.90
21331;DHT22;10824;51.632;4.950;2022-10-31T18:32:37;14.80;99.90
21331;DHT22;10824;51.632;4.950;2022-10-31T18:35:04;14.80;99.90
21331;DHT22;10824;51.632;4.950;2022-10-31T18:37:31;14.80;99.90
21331;DHT22;10824;51.632;4.950;2022-10-31T18:39:58;14.80;99.90
21331;DHT22;10824;51.632;4.950;2022-10-31T18:42:26;14.80;99.90
21331;DHT22;10824;51.632;4.950;2022-10-31T18:44:53;14.80;99.90